sensor_id;sensor_type;location;lat;lon;timestamp;P1;durP1;ratioP1;P2;durP2;ratioP2
60054;SDS011;45930;53.514;55.904;2022-08-21T00:00:20;34.22;;;24.30;;
60054;SDS011;45930;53.514;55.904;2022-08-21T00:01:24;42.90;;;25.67;;
60054;SDS011;45930;53.514;55.904;2022-08-21T00:02:27;33.17;;;23.38;;
60054;SDS011;45930;53.514;55.904;2022-08-21T00:03:28;32.75;;;23.30;;
60054;SDS011;45930;53.514;55.904;2022-08-21T00:04:30;38.65;;;24.75;;
60054;SDS011;45930;53.514;55.904;2022-08-21T00:05:31;35.08;;;23.92;;
60054;SDS011;45930;53.514;55.904;2022-08-21T00:06:33;37.67;;;25.88;;
60054;SDS011;45930;53.514;55.904;2022-08-21T00:07:35;38.17;;;25.85;;
60054;SDS011;45930;53.514;55.904;2022-08-21T00:08:35;41.90;;;26.60;;
60054;SDS011;45930;53.514;55.904;2022-08-21T00:09:36;40.35;;;27.23;;
60054;SDS011;45930;53.514;55.904;2022-08-21T00:10:38;42.35;;;26.92;;
60054;SDS011;45930;53.514;55.904;2022-08-21T00:11:41;40.05;;;26.70;;
60054;SDS011;45930;53.514;55.904;2022-08-21T00:12:42;39.00;;;26.45;;
60054;SDS011;45930;53.514;55.904;2022-08-21T00:13:44;36.50;;;26.13;;
60054;SDS011;45930;53.514;55.904;2022-08-21T00:14:45;38.05;;;26.45;;
60054;SDS011;45930;53.514;55.904;2022-08-21T00:15:46;36.03;;;25.25;;
60054;SDS011;45930;53.514;55.904;2022-08-21T00:16:48;34.55;;;24.60;;
60054;SDS011;45930;53.514;55.904;2022-08-21T00:17:49;38.65;;;26.73;;
60054;SDS011;45930;53.514;55.904;2022-08-21T00:18:50;37.67;;;26.67;;
60054;SDS011;45930;53.514;55.904;2022-08-21T00:19:51;42.58;;;26.50;;
60054;SDS011;45930;53.514;55.904;2022-08-21T00:20:52;34.67;;;25.65;;
60054;SDS011;45930;53.514;55.904;2022-08-21T00:21:53;36.25;;;26.20;;
60054;SDS011;45930;53.514;55.904;2022-08-21T00:22:55;44.25;;;26.65;;
60054;SDS011;45930;53.514;55.904;2022-08-21T00:23:56;36.42;;;25.23;;
60054;SDS011;45930;53.514;55.904;2022-08-21T00:24:56;38.70;;;25.52;;
60054;SDS011;45930;53.514;55.904;2022-08-21T00:25:58;41.20;;;26.85;;
60054;SDS011;45930;53.514;55.904;2022-08-21T00:26:59;35.58;;;25.95;;
60054;SDS011;45930;53.514;55.904;2022-08-21T00:28:00;36.78;;;26.10;;
60054;SDS011;45930;53.514;55.904;2022-08-21T00:29:02;39.70;;;25.65;;
60054;SDS011;45930;53.514;55.904;2022-08-21T00:30:05;38.90;;;27.27;;
60054;SDS011;45930;53.514;55.904;2022-08-21T00:31:06;37.35;;;26.77;;
60054;SDS011;45930;53.514;55.904;2022-08-21T00:32:07;40.72;;;27.20;;
60054;SDS011;45930;53.514;55.904;2022-08-21T00:33:08;38.50;;;26.08;;
60054;SDS011;45930;53.514;55.904;2022-08-21T00:34:10;36.72;;;25.52;;
60054;SDS011;45930;53.514;55.904;2022-08-21T00:35:13;39.92;;;26.63;;
60054;SDS011;45930;53.514;55.904;2022-08-21T00:36:17;43.20;;;26.98;;
60054;SDS011;45930;53.514;55.904;2022-08-21T00:37:18;43.90;;;26.95;;
60054;SDS011;45930;53.514;55.904;2022-08-21T00:38:19;36.40;;;25.90;;
60054;SDS011;45930;53.514;55.904;2022-08-21T00:39:19;43.25;;;26.42;;
60054;SDS011;45930;53.514;55.904;2022-08-21T00:40:23;41.28;;;27.13;;
60054;SDS011;45930;53.514;55.904;2022-08-21T00:41:26;38.38;;;26.08;;
60054;SDS011;45930;53.514;55.904;2022-08-21T00:42:28;43.88;;;26.35;;
60054;SDS011;45930;53.514;55.904;2022-08-21T00:43:31;37.45;;;25.77;;
60054;SDS011;45930;53.514;55.904;2022-08-21T00:44:33;38.97;;;26.98;;
60054;SDS011;45930;53.514;55.904;2022-08-21T00:45:34;41.17;;;27.33;;
60054;SDS011;45930;53.514;55.904;2022-08-21T00:46:35;44.08;;;27.88;;
60054;SDS011;45930;53.514;55.904;2022-08-21T00:47:37;41.42;;;26.92;;
60054;SDS011;45930;53.514;55.904;2022-08-21T00:48:38;38.33;;;26.17;;
60054;SDS011;45930;53.514;55.904;2022-08-21T00:49:39;36.22;;;26.33;;
60054;SDS011;45930;53.514;55.904;2022-08-21T00:50:43;38.50;;;26.10;;
60054;SDS011;45930;53.514;55.904;2022-08-21T00:51:50;42.85;;;28.02;;
60054;SDS011;45930;53.514;55.904;2022-08-21T00:52:55;35.38;;;25.60;;
60054;SDS011;45930;53.514;55.904;2022-08-21T00:53:57;40.40;;;26.08;;
60054;SDS011;45930;53.514;55.904;2022-08-21T00:55:01;38.33;;;26.88;;
60054;SDS011;45930;53.514;55.904;2022-08-21T00:56:03;38.33;;;26.45;;
60054;SDS011;45930;53.514;55.904;2022-08-21T00:57:09;35.45;;;26.00;;
60054;SDS011;45930;53.514;55.904;2022-08-21T00:58:15;34.95;;;24.90;;
60054;SDS011;45930;53.514;55.904;2022-08-21T00:59:18;42.13;;;24.50;;
60054;SDS011;45930;53.514;55.904;2022-08-21T01:00:22;34.15;;;24.13;;
60054;SDS011;45930;53.514;55.904;2022-08-21T01:01:32;35.75;;;24.15;;
60054;SDS011;45930;53.514;55.904;2022-08-21T01:02:33;37.10;;;24.70;;
60054;SDS011;45930;53.514;55.904;2022-08-21T01:03:34;40.35;;;25.38;;
60054;SDS011;45930;53.514;55.904;2022-08-21T01:04:36;38.03;;;25.10;;
60054;SDS011;45930;53.514;55.904;2022-08-21T01:05:37;42.72;;;27.20;;
60054;SDS011;45930;53.514;55.904;2022-08-21T01:06:38;36.25;;;24.65;;
60054;SDS011;45930;53.514;55.904;2022-08-21T01:07:40;37.60;;;25.45;;
60054;SDS011;45930;53.514;55.904;2022-08-21T01:08:42;41.13;;;25.75;;
60054;SDS011;45930;53.514;55.904;2022-08-21T01:09:44;39.90;;;27.02;;
60054;SDS011;45930;53.514;55.904;2022-08-21T01:10:47;41.50;;;26.30;;
60054;SDS011;45930;53.514;55.904;2022-08-21T01:11:48;36.95;;;25.15;;
60054;SDS011;45930;53.514;55.904;2022-08-21T01:12:50;40.70;;;25.38;;
60054;SDS011;45930;53.514;55.904;2022-08-21T01:13:53;38.47;;;25.65;;
60054;SDS011;45930;53.514;55.904;2022-08-21T01:14:54;35.78;;;24.60;;
60054;SDS011;45930;53.514;55.904;2022-08-21T01:15:55;38.42;;;25.13;;
60054;SDS011;45930;53.514;55.904;2022-08-21T01:16:59;36.30;;;25.70;;
60054;SDS011;45930;53.514;55.904;2022-08-21T01:18:03;37.40;;;25.17;;
60054;SDS011;45930;53.514;55.904;2022-08-21T01:19:06;43.33;;;26.55;;
60054;SDS011;45930;53.514;55.904;2022-08-21T01:20:09;36.88;;;25.83;;
60054;SDS011;45930;53.514;55.904;2022-08-21T01:21:17;40.33;;;25.70;;
60054;SDS011;45930;53.514;55.904;2022-08-21T01:22:22;36.85;;;25.30;;
60054;SDS011;45930;53.514;55.904;2022-08-21T01:23:23;34.47;;;24.70;;
60054;SDS011;45930;53.514;55.904;2022-08-21T01:24:24;38.42;;;25.52;;
60054;SDS011;45930;53.514;55.904;2022-08-21T01:25:24;34.83;;;25.10;;
60054;SDS011;45930;53.514;55.904;2022-08-21T01:26:27;37.05;;;24.77;;
60054;SDS011;45930;53.514;55.904;2022-08-21T01:27:31;40.13;;;25.55;;
60054;SDS011;45930;53.514;55.904;2022-08-21T01:28:33;39.85;;;25.52;;
60054;SDS011;45930;53.514;55.904;2022-08-21T01:29:41;34.97;;;25.55;;
60054;SDS011;45930;53.514;55.904;2022-08-21T01:31:05;41.00;;;26.63;;
60054;SDS011;45930;53.514;55.904;2022-08-21T01:32:13;40.72;;;24.98;;
60054;SDS011;45930;53.514;55.904;2022-08-21T01:33:20;36.30;;;23.70;;
60054;SDS011;45930;53.514;55.904;2022-08-21T01:34:24;38.13;;;24.95;;
60054;SDS011;45930;53.514;55.904;2022-08-21T01:35:25;36.30;;;23.85;;
60054;SDS011;45930;53.514;55.904;2022-08-21T01:36:26;34.45;;;24.95;;
60054;SDS011;45930;53.514;55.904;2022-08-21T01:37:27;37.25;;;24.75;;
60054;SDS011;45930;53.514;55.904;2022-08-21T01:38:27;36.90;;;24.23;;
60054;SDS011;45930;53.514;55.904;2022-08-21T01:39:29;35.88;;;24.75;;
60054;SDS011;45930;53.514;55.904;2022-08-21T01:40:29;34.90;;;25.27;;
60054;SDS011;45930;53.514;55.904;2022-08-21T01:41:30;38.65;;;25.33;;
60054;SDS011;45930;53.514;55.904;2022-08-21T01:42:31;34.83;;;24.27;;
60054;SDS011;45930;53.514;55.904;2022-08-21T01:43:32;37.05;;;25.33;;
60054;SDS011;45930;53.514;55.904;2022-08-21T01:44:34;34.88;;;23.80;;
60054;SDS011;45930;53.514;55.904;2022-08-21T01:45:35;35.30;;;24.80;;
60054;SDS011;45930;53.514;55.904;2022-08-21T01:46:36;37.65;;;24.67;;
60054;SDS011;45930;53.514;55.904;2022-08-21T01:47:37;33.53;;;25.05;;
60054;SDS011;45930;53.514;55.904;2022-08-21T01:48:38;36.45;;;25.50;;
60054;SDS011;45930;53.514;55.904;2022-08-21T01:49:40;34.60;;;25.17;;
60054;SDS011;45930;53.514;55.904;2022-08-21T01:50:41;34.88;;;25.60;;
60054;SDS011;45930;53.514;55.904;2022-08-21T01:51:42;38.20;;;25.08;;
60054;SDS011;45930;53.514;55.904;2022-08-21T01:52:43;37.20;;;23.88;;
60054;SDS011;45930;53.514;55.904;2022-08-21T01:53:44;37.50;;;24.75;;
60054;SDS011;45930;53.514;55.904;2022-08-21T01:54:45;39.72;;;25.77;;
60054;SDS011;45930;53.514;55.904;2022-08-21T01:55:46;39.13;;;25.83;;
60054;SDS011;45930;53.514;55.904;2022-08-21T01:56:49;39.88;;;25.42;;
60054;SDS011;45930;53.514;55.904;2022-08-21T01:57:51;35.67;;;25.23;;
60054;SDS011;45930;53.514;55.904;2022-08-21T01:58:52;33.45;;;24.08;;
60054;SDS011;45930;53.514;55.904;2022-08-21T01:59:53;36.58;;;24.70;;
60054;SDS011;45930;53.514;55.904;2022-08-21T02:00:54;36.65;;;24.13;;
60054;SDS011;45930;53.514;55.904;2022-08-21T02:01:55;36.67;;;24.17;;
60054;SDS011;45930;53.514;55.904;2022-08-21T02:02:55;37.40;;;24.83;;
60054;SDS011;45930;53.514;55.904;2022-08-21T02:03:56;36.03;;;23.20;;
60054;SDS011;45930;53.514;55.904;2022-08-21T02:04:59;36.42;;;23.48;;
60054;SDS011;45930;53.514;55.904;2022-08-21T02:06:00;37.58;;;24.67;;
60054;SDS011;45930;53.514;55.904;2022-08-21T02:07:01;46.45;;;25.63;;
60054;SDS011;45930;53.514;55.904;2022-08-21T02:08:02;34.25;;;24.23;;
60054;SDS011;45930;53.514;55.904;2022-08-21T02:09:04;38.60;;;23.40;;
60054;SDS011;45930;53.514;55.904;2022-08-21T02:10:06;32.83;;;22.83;;
60054;SDS011;45930;53.514;55.904;2022-08-21T02:11:09;39.75;;;23.63;;
60054;SDS011;45930;53.514;55.904;2022-08-21T02:12:10;34.85;;;23.05;;
60054;SDS011;45930;53.514;55.904;2022-08-21T02:13:11;35.15;;;24.25;;
60054;SDS011;45930;53.514;55.904;2022-08-21T02:14:13;36.75;;;24.42;;
60054;SDS011;45930;53.514;55.904;2022-08-21T02:15:15;34.72;;;23.80;;
60054;SDS011;45930;53.514;55.904;2022-08-21T02:16:16;33.38;;;22.35;;
60054;SDS011;45930;53.514;55.904;2022-08-21T02:17:20;33.75;;;23.55;;
60054;SDS011;45930;53.514;55.904;2022-08-21T02:18:21;37.30;;;24.52;;
60054;SDS011;45930;53.514;55.904;2022-08-21T02:19:22;37.22;;;24.10;;
60054;SDS011;45930;53.514;55.904;2022-08-21T02:20:25;33.55;;;22.83;;
60054;SDS011;45930;53.514;55.904;2022-08-21T02:21:28;32.72;;;23.50;;
60054;SDS011;45930;53.514;55.904;2022-08-21T02:22:29;34.97;;;23.60;;
60054;SDS011;45930;53.514;55.904;2022-08-21T02:23:30;36.03;;;23.92;;
60054;SDS011;45930;53.514;55.904;2022-08-21T02:24:31;35.05;;;23.27;;
60054;SDS011;45930;53.514;55.904;2022-08-21T02:25:32;32.38;;;22.65;;
60054;SDS011;45930;53.514;55.904;2022-08-21T02:26:33;32.28;;;22.83;;
60054;SDS011;45930;53.514;55.904;2022-08-21T02:27:38;33.40;;;23.40;;
60054;SDS011;45930;53.514;55.904;2022-08-21T02:29:44;37.90;;;24.55;;
60054;SDS011;45930;53.514;55.904;2022-08-21T02:30:46;29.02;;;22.90;;
60054;SDS011;45930;53.514;55.904;2022-08-21T02:31:48;31.50;;;24.75;;
60054;SDS011;45930;53.514;55.904;2022-08-21T02:32:49;33.70;;;22.00;;
60054;SDS011;45930;53.514;55.904;2022-08-21T02:33:50;36.50;;;22.48;;
60054;SDS011;45930;53.514;55.904;2022-08-21T02:34:51;31.50;;;22.63;;
60054;SDS011;45930;53.514;55.904;2022-08-21T02:35:53;33.30;;;22.75;;
60054;SDS011;45930;53.514;55.904;2022-08-21T02:36:54;27.30;;;21.65;;
60054;SDS011;45930;53.514;55.904;2022-08-21T02:38:00;29.17;;;21.13;;
60054;SDS011;45930;53.514;55.904;2022-08-21T02:39:04;32.08;;;22.83;;
60054;SDS011;45930;53.514;55.904;2022-08-21T02:40:05;30.45;;;21.13;;
60054;SDS011;45930;53.514;55.904;2022-08-21T02:41:07;29.13;;;21.40;;
60054;SDS011;45930;53.514;55.904;2022-08-21T02:42:10;34.45;;;20.83;;
60054;SDS011;45930;53.514;55.904;2022-08-21T02:43:11;32.58;;;20.92;;
60054;SDS011;45930;53.514;55.904;2022-08-21T02:44:12;25.90;;;20.95;;
60054;SDS011;45930;53.514;55.904;2022-08-21T02:45:13;28.70;;;20.27;;
60054;SDS011;45930;53.514;55.904;2022-08-21T02:46:16;33.17;;;21.73;;
60054;SDS011;45930;53.514;55.904;2022-08-21T02:47:18;26.33;;;19.48;;
60054;SDS011;45930;53.514;55.904;2022-08-21T02:48:21;26.77;;;19.00;;
60054;SDS011;45930;53.514;55.904;2022-08-21T02:49:23;25.55;;;18.88;;
60054;SDS011;45930;53.514;55.904;2022-08-21T02:50:28;24.08;;;19.70;;
60054;SDS011;45930;53.514;55.904;2022-08-21T02:51:31;25.58;;;19.67;;
60054;SDS011;45930;53.514;55.904;2022-08-21T02:52:32;25.95;;;18.85;;
60054;SDS011;45930;53.514;55.904;2022-08-21T02:53:34;24.05;;;19.30;;
60054;SDS011;45930;53.514;55.904;2022-08-21T02:54:36;23.05;;;18.95;;
60054;SDS011;45930;53.514;55.904;2022-08-21T02:55:37;23.13;;;18.45;;
60054;SDS011;45930;53.514;55.904;2022-08-21T02:56:38;25.13;;;18.40;;
60054;SDS011;45930;53.514;55.904;2022-08-21T02:57:39;23.23;;;18.75;;
60054;SDS011;45930;53.514;55.904;2022-08-21T02:58:41;19.52;;;17.15;;
60054;SDS011;45930;53.514;55.904;2022-08-21T02:59:45;23.08;;;18.33;;
60054;SDS011;45930;53.514;55.904;2022-08-21T03:00:47;22.30;;;17.63;;
60054;SDS011;45930;53.514;55.904;2022-08-21T03:01:48;21.90;;;18.33;;
60054;SDS011;45930;53.514;55.904;2022-08-21T03:02:52;25.05;;;17.83;;
60054;SDS011;45930;53.514;55.904;2022-08-21T03:03:53;21.60;;;17.60;;
60054;SDS011;45930;53.514;55.904;2022-08-21T03:04:54;24.13;;;18.08;;
60054;SDS011;45930;53.514;55.904;2022-08-21T03:05:55;21.95;;;18.70;;
60054;SDS011;45930;53.514;55.904;2022-08-21T03:06:55;22.98;;;18.33;;
60054;SDS011;45930;53.514;55.904;2022-08-21T03:07:56;22.17;;;18.35;;
60054;SDS011;45930;53.514;55.904;2022-08-21T03:08:59;20.02;;;17.90;;
60054;SDS011;45930;53.514;55.904;2022-08-21T03:10:00;23.23;;;16.70;;
60054;SDS011;45930;53.514;55.904;2022-08-21T03:11:01;21.27;;;17.67;;
60054;SDS011;45930;53.514;55.904;2022-08-21T03:12:02;21.10;;;17.42;;
60054;SDS011;45930;53.514;55.904;2022-08-21T03:13:03;21.67;;;19.38;;
60054;SDS011;45930;53.514;55.904;2022-08-21T03:14:04;26.20;;;20.10;;
60054;SDS011;45930;53.514;55.904;2022-08-21T03:15:06;22.98;;;19.63;;
60054;SDS011;45930;53.514;55.904;2022-08-21T03:16:09;21.08;;;18.88;;
60054;SDS011;45930;53.514;55.904;2022-08-21T03:17:10;23.35;;;19.80;;
60054;SDS011;45930;53.514;55.904;2022-08-21T03:18:11;26.48;;;20.27;;
60054;SDS011;45930;53.514;55.904;2022-08-21T03:19:12;22.60;;;19.95;;
60054;SDS011;45930;53.514;55.904;2022-08-21T03:20:14;24.95;;;19.33;;
60054;SDS011;45930;53.514;55.904;2022-08-21T03:21:16;22.42;;;19.80;;
60054;SDS011;45930;53.514;55.904;2022-08-21T03:22:19;23.70;;;20.00;;
60054;SDS011;45930;53.514;55.904;2022-08-21T03:23:19;22.80;;;20.33;;
60054;SDS011;45930;53.514;55.904;2022-08-21T03:24:20;24.25;;;19.08;;
60054;SDS011;45930;53.514;55.904;2022-08-21T03:25:22;25.85;;;20.48;;
60054;SDS011;45930;53.514;55.904;2022-08-21T03:26:25;24.20;;;21.38;;
60054;SDS011;45930;53.514;55.904;2022-08-21T03:27:27;22.83;;;20.40;;
60054;SDS011;45930;53.514;55.904;2022-08-21T03:28:28;24.10;;;20.63;;
60054;SDS011;45930;53.514;55.904;2022-08-21T03:29:29;23.13;;;20.48;;
60054;SDS011;45930;53.514;55.904;2022-08-21T03:30:30;24.33;;;20.25;;
60054;SDS011;45930;53.514;55.904;2022-08-21T03:31:31;23.38;;;20.15;;
60054;SDS011;45930;53.514;55.904;2022-08-21T03:32:32;27.63;;;20.95;;
60054;SDS011;45930;53.514;55.904;2022-08-21T03:33:33;22.90;;;19.30;;
60054;SDS011;45930;53.514;55.904;2022-08-21T03:34:35;22.92;;;20.27;;
60054;SDS011;45930;53.514;55.904;2022-08-21T03:35:36;23.73;;;19.05;;
60054;SDS011;45930;53.514;55.904;2022-08-21T03:36:37;22.45;;;18.77;;
60054;SDS011;45930;53.514;55.904;2022-08-21T03:37:38;21.73;;;19.40;;
60054;SDS011;45930;53.514;55.904;2022-08-21T03:38:39;23.83;;;18.45;;
60054;SDS011;45930;53.514;55.904;2022-08-21T03:39:40;20.23;;;17.10;;
60054;SDS011;45930;53.514;55.904;2022-08-21T03:40:42;24.42;;;18.50;;
60054;SDS011;45930;53.514;55.904;2022-08-21T03:41:43;22.75;;;17.60;;
60054;SDS011;45930;53.514;55.904;2022-08-21T03:42:44;21.02;;;18.83;;
60054;SDS011;45930;53.514;55.904;2022-08-21T03:43:47;23.55;;;18.30;;
60054;SDS011;45930;53.514;55.904;2022-08-21T03:44:48;22.65;;;19.33;;
60054;SDS011;45930;53.514;55.904;2022-08-21T03:45:49;22.83;;;18.52;;
60054;SDS011;45930;53.514;55.904;2022-08-21T03:46:49;21.42;;;19.00;;
60054;SDS011;45930;53.514;55.904;2022-08-21T03:47:55;22.27;;;18.73;;
60054;SDS011;45930;53.514;55.904;2022-08-21T03:48:58;23.27;;;18.83;;
60054;SDS011;45930;53.514;55.904;2022-08-21T03:49:59;23.30;;;19.13;;
60054;SDS011;45930;53.514;55.904;2022-08-21T03:51:00;21.85;;;19.55;;
60054;SDS011;45930;53.514;55.904;2022-08-21T03:52:01;27.83;;;20.15;;
60054;SDS011;45930;53.514;55.904;2022-08-21T03:53:03;24.38;;;19.83;;
60054;SDS011;45930;53.514;55.904;2022-08-21T03:54:04;22.05;;;19.23;;
60054;SDS011;45930;53.514;55.904;2022-08-21T03:55:05;24.70;;;21.02;;
60054;SDS011;45930;53.514;55.904;2022-08-21T03:56:06;25.45;;;21.08;;
60054;SDS011;45930;53.514;55.904;2022-08-21T03:57:08;22.77;;;20.40;;
60054;SDS011;45930;53.514;55.904;2022-08-21T03:58:09;30.80;;;20.70;;
60054;SDS011;45930;53.514;55.904;2022-08-21T03:59:10;23.13;;;20.77;;
60054;SDS011;45930;53.514;55.904;2022-08-21T04:00:12;27.15;;;21.65;;
60054;SDS011;45930;53.514;55.904;2022-08-21T04:01:14;29.60;;;22.27;;
60054;SDS011;45930;53.514;55.904;2022-08-21T04:02:16;28.65;;;22.50;;
60054;SDS011;45930;53.514;55.904;2022-08-21T04:03:20;27.05;;;22.90;;
60054;SDS011;45930;53.514;55.904;2022-08-21T04:04:21;29.73;;;24.08;;
60054;SDS011;45930;53.514;55.904;2022-08-21T04:05:21;35.75;;;24.60;;
60054;SDS011;45930;53.514;55.904;2022-08-21T04:06:28;33.20;;;25.52;;
60054;SDS011;45930;53.514;55.904;2022-08-21T04:07:29;44.97;;;25.50;;
60054;SDS011;45930;53.514;55.904;2022-08-21T04:08:30;31.60;;;27.25;;
60054;SDS011;45930;53.514;55.904;2022-08-21T04:09:30;35.53;;;26.73;;
60054;SDS011;45930;53.514;55.904;2022-08-21T04:10:32;34.33;;;27.38;;
60054;SDS011;45930;53.514;55.904;2022-08-21T04:11:34;33.85;;;27.60;;
60054;SDS011;45930;53.514;55.904;2022-08-21T04:12:35;30.20;;;26.05;;
60054;SDS011;45930;53.514;55.904;2022-08-21T04:13:37;36.30;;;26.60;;
60054;SDS011;45930;53.514;55.904;2022-08-21T04:14:38;40.80;;;28.38;;
60054;SDS011;45930;53.514;55.904;2022-08-21T04:15:39;39.38;;;27.52;;
60054;SDS011;45930;53.514;55.904;2022-08-21T04:16:41;38.10;;;27.63;;
60054;SDS011;45930;53.514;55.904;2022-08-21T04:17:42;38.38;;;27.77;;
60054;SDS011;45930;53.514;55.904;2022-08-21T04:18:43;38.63;;;28.65;;
60054;SDS011;45930;53.514;55.904;2022-08-21T04:19:44;35.80;;;28.10;;
60054;SDS011;45930;53.514;55.904;2022-08-21T04:20:46;38.15;;;29.25;;
60054;SDS011;45930;53.514;55.904;2022-08-21T04:21:49;38.65;;;29.20;;
60054;SDS011;45930;53.514;55.904;2022-08-21T04:22:50;51.78;;;31.10;;
60054;SDS011;45930;53.514;55.904;2022-08-21T04:23:53;41.47;;;29.05;;
60054;SDS011;45930;53.514;55.904;2022-08-21T04:24:55;43.83;;;30.15;;
60054;SDS011;45930;53.514;55.904;2022-08-21T04:25:56;42.53;;;29.48;;
60054;SDS011;45930;53.514;55.904;2022-08-21T04:26:57;46.80;;;29.90;;
60054;SDS011;45930;53.514;55.904;2022-08-21T04:27:58;47.83;;;31.58;;
60054;SDS011;45930;53.514;55.904;2022-08-21T04:28:59;86.50;;;35.10;;
60054;SDS011;45930;53.514;55.904;2022-08-21T04:29:59;46.15;;;30.90;;
60054;SDS011;45930;53.514;55.904;2022-08-21T04:31:01;43.40;;;30.27;;
60054;SDS011;45930;53.514;55.904;2022-08-21T04:32:02;45.05;;;31.85;;
60054;SDS011;45930;53.514;55.904;2022-08-21T04:33:06;44.83;;;31.95;;
60054;SDS011;45930;53.514;55.904;2022-08-21T04:34:06;44.38;;;31.65;;
60054;SDS011;45930;53.514;55.904;2022-08-21T04:35:08;45.83;;;32.65;;
60054;SDS011;45930;53.514;55.904;2022-08-21T04:36:11;47.35;;;30.20;;
60054;SDS011;45930;53.514;55.904;2022-08-21T04:37:12;48.10;;;32.05;;
60054;SDS011;45930;53.514;55.904;2022-08-21T04:38:15;43.45;;;31.17;;
60054;SDS011;45930;53.514;55.904;2022-08-21T04:39:16;40.30;;;30.00;;
60054;SDS011;45930;53.514;55.904;2022-08-21T04:40:17;44.50;;;31.83;;
60054;SDS011;45930;53.514;55.904;2022-08-21T04:41:19;51.28;;;32.05;;
60054;SDS011;45930;53.514;55.904;2022-08-21T04:42:20;44.67;;;31.25;;
60054;SDS011;45930;53.514;55.904;2022-08-21T04:43:21;46.75;;;30.98;;
60054;SDS011;45930;53.514;55.904;2022-08-21T04:44:23;46.05;;;30.63;;
60054;SDS011;45930;53.514;55.904;2022-08-21T04:45:25;51.25;;;31.95;;
60054;SDS011;45930;53.514;55.904;2022-08-21T04:46:31;46.00;;;31.38;;
60054;SDS011;45930;53.514;55.904;2022-08-21T04:47:32;48.22;;;31.75;;
60054;SDS011;45930;53.514;55.904;2022-08-21T04:48:33;45.42;;;29.55;;
60054;SDS011;45930;53.514;55.904;2022-08-21T04:49:33;47.55;;;32.17;;
60054;SDS011;45930;53.514;55.904;2022-08-21T04:50:39;46.53;;;31.75;;
60054;SDS011;45930;53.514;55.904;2022-08-21T04:51:46;47.45;;;33.65;;
60054;SDS011;45930;53.514;55.904;2022-08-21T04:52:47;49.75;;;30.50;;
60054;SDS011;45930;53.514;55.904;2022-08-21T04:53:49;50.25;;;32.30;;
60054;SDS011;45930;53.514;55.904;2022-08-21T04:54:52;48.42;;;29.88;;
60054;SDS011;45930;53.514;55.904;2022-08-21T04:55:53;47.55;;;31.77;;
60054;SDS011;45930;53.514;55.904;2022-08-21T04:56:56;51.97;;;30.15;;
60054;SDS011;45930;53.514;55.904;2022-08-21T04:58:05;44.58;;;27.48;;
60054;SDS011;45930;53.514;55.904;2022-08-21T04:59:15;42.42;;;29.33;;
60054;SDS011;45930;53.514;55.904;2022-08-21T05:00:26;43.10;;;27.27;;
60054;SDS011;45930;53.514;55.904;2022-08-21T05:01:27;41.47;;;28.92;;
60054;SDS011;45930;53.514;55.904;2022-08-21T05:02:30;39.92;;;28.50;;
60054;SDS011;45930;53.514;55.904;2022-08-21T05:03:33;41.80;;;28.05;;
60054;SDS011;45930;53.514;55.904;2022-08-21T05:04:37;42.35;;;28.30;;
60054;SDS011;45930;53.514;55.904;2022-08-21T05:05:42;41.28;;;26.60;;
60054;SDS011;45930;53.514;55.904;2022-08-21T05:06:44;34.53;;;24.98;;
60054;SDS011;45930;53.514;55.904;2022-08-21T05:07:49;37.53;;;24.55;;
60054;SDS011;45930;53.514;55.904;2022-08-21T05:08:53;32.30;;;23.85;;
60054;SDS011;45930;53.514;55.904;2022-08-21T05:09:56;31.33;;;25.05;;
60054;SDS011;45930;53.514;55.904;2022-08-21T05:10:57;31.33;;;24.55;;
60054;SDS011;45930;53.514;55.904;2022-08-21T05:11:59;30.45;;;23.35;;
60054;SDS011;45930;53.514;55.904;2022-08-21T05:13:02;25.95;;;22.00;;
60054;SDS011;45930;53.514;55.904;2022-08-21T05:14:03;24.90;;;21.48;;
60054;SDS011;45930;53.514;55.904;2022-08-21T05:15:04;24.92;;;19.95;;
60054;SDS011;45930;53.514;55.904;2022-08-21T05:16:05;26.75;;;21.98;;
60054;SDS011;45930;53.514;55.904;2022-08-21T05:17:06;29.85;;;21.50;;
60054;SDS011;45930;53.514;55.904;2022-08-21T05:18:07;25.75;;;21.90;;
60054;SDS011;45930;53.514;55.904;2022-08-21T05:19:09;24.80;;;22.10;;
60054;SDS011;45930;53.514;55.904;2022-08-21T05:20:11;24.17;;;20.05;;
60054;SDS011;45930;53.514;55.904;2022-08-21T05:21:15;26.70;;;19.17;;
60054;SDS011;45930;53.514;55.904;2022-08-21T05:22:22;23.67;;;21.20;;
60054;SDS011;45930;53.514;55.904;2022-08-21T05:23:44;28.50;;;20.70;;
60054;SDS011;45930;53.514;55.904;2022-08-21T05:24:46;34.10;;;21.38;;
60054;SDS011;45930;53.514;55.904;2022-08-21T05:25:46;30.05;;;23.02;;
60054;SDS011;45930;53.514;55.904;2022-08-21T05:26:47;26.45;;;20.90;;
60054;SDS011;45930;53.514;55.904;2022-08-21T05:27:48;30.67;;;22.10;;
60054;SDS011;45930;53.514;55.904;2022-08-21T05:28:49;28.92;;;21.77;;
60054;SDS011;45930;53.514;55.904;2022-08-21T05:29:49;26.42;;;20.80;;
60054;SDS011;45930;53.514;55.904;2022-08-21T05:30:50;25.67;;;22.05;;
60054;SDS011;45930;53.514;55.904;2022-08-21T05:31:52;22.25;;;19.48;;
60054;SDS011;45930;53.514;55.904;2022-08-21T05:32:57;28.08;;;21.42;;
60054;SDS011;45930;53.514;55.904;2022-08-21T05:33:58;23.55;;;20.33;;
60054;SDS011;45930;53.514;55.904;2022-08-21T05:34:59;23.50;;;19.90;;
60054;SDS011;45930;53.514;55.904;2022-08-21T05:36:00;21.45;;;18.92;;
60054;SDS011;45930;53.514;55.904;2022-08-21T05:37:01;23.67;;;19.92;;
60054;SDS011;45930;53.514;55.904;2022-08-21T05:38:02;23.13;;;19.60;;
60054;SDS011;45930;53.514;55.904;2022-08-21T05:39:03;34.70;;;20.55;;
60054;SDS011;45930;53.514;55.904;2022-08-21T05:40:04;24.42;;;18.48;;
60054;SDS011;45930;53.514;55.904;2022-08-21T05:41:06;26.77;;;18.65;;
60054;SDS011;45930;53.514;55.904;2022-08-21T05:42:07;24.70;;;20.30;;
60054;SDS011;45930;53.514;55.904;2022-08-21T05:43:08;23.73;;;19.92;;
60054;SDS011;45930;53.514;55.904;2022-08-21T05:44:09;22.27;;;18.80;;
60054;SDS011;45930;53.514;55.904;2022-08-21T05:45:10;20.05;;;18.10;;
60054;SDS011;45930;53.514;55.904;2022-08-21T05:46:11;22.65;;;20.02;;
60054;SDS011;45930;53.514;55.904;2022-08-21T05:47:11;21.17;;;18.27;;
60054;SDS011;45930;53.514;55.904;2022-08-21T05:48:14;20.95;;;18.50;;
60054;SDS011;45930;53.514;55.904;2022-08-21T05:49:16;19.58;;;17.20;;
60054;SDS011;45930;53.514;55.904;2022-08-21T05:50:17;19.85;;;17.92;;
60054;SDS011;45930;53.514;55.904;2022-08-21T05:51:17;18.65;;;16.85;;
60054;SDS011;45930;53.514;55.904;2022-08-21T05:52:19;21.10;;;19.02;;
60054;SDS011;45930;53.514;55.904;2022-08-21T05:53:21;18.88;;;16.98;;
60054;SDS011;45930;53.514;55.904;2022-08-21T05:54:23;19.67;;;17.13;;
60054;SDS011;45930;53.514;55.904;2022-08-21T05:55:23;20.73;;;17.98;;
60054;SDS011;45930;53.514;55.904;2022-08-21T05:56:24;17.90;;;16.10;;
60054;SDS011;45930;53.514;55.904;2022-08-21T05:57:25;19.92;;;15.27;;
60054;SDS011;45930;53.514;55.904;2022-08-21T05:58:26;21.00;;;17.95;;